createdAt,value
2023-03-20T00:00:18.602Z,98.45
2023-03-20T00:02:48.271Z,98.68
2023-03-20T00:05:23.807Z,98.93
2023-03-20T00:07:54.002Z,98.81
2023-03-20T00:10:33.281Z,98.29
2023-03-20T00:13:03.023Z,98.90
2023-03-20T00:15:35.129Z,99.65
2023-03-20T00:18:05.080Z,99.67
2023-03-20T00:20:34.900Z,100.00
2023-03-20T00:23:05.065Z,99.52
2023-03-20T00:25:37.480Z,100.00
2023-03-20T00:28:29.704Z,99.93
2023-03-20T00:30:59.500Z,100.00
2023-03-20T00:33:31.416Z,99.87
2023-03-20T00:36:01.767Z,100.00
2023-03-20T00:38:31.501Z,100.00
2023-03-20T00:41:03.904Z,99.57
2023-03-20T00:43:33.884Z,99.32
2023-03-20T00:46:03.531Z,99.71
2023-03-20T00:48:33.754Z,99.02
2023-03-20T00:51:03.511Z,97.78
2023-03-20T00:53:34.826Z,98.17
2023-03-20T00:56:08.140Z,97.58
2023-03-20T00:58:38.923Z,95.17
2023-03-20T01:01:08.673Z,94.36
2023-03-20T01:03:40.684Z,94.33
2023-03-20T01:06:14.356Z,94.23
2023-03-20T01:08:44.054Z,94.08
2023-03-20T01:11:16.866Z,93.41
2023-03-20T01:13:46.590Z,93.01
2023-03-20T01:16:23.527Z,92.33
2023-03-20T01:18:53.871Z,91.93
2023-03-20T01:21:24.063Z,91.98
2023-03-20T01:23:53.764Z,92.67
2023-03-20T01:26:32.016Z,92.81
2023-03-20T01:29:01.685Z,93.59
2023-03-20T01:31:32.528Z,93.46
2023-03-20T01:34:02.378Z,93.00
2023-03-20T01:36:32.481Z,93.13
2023-03-20T01:39:02.982Z,92.55
2023-03-20T01:41:35.797Z,92.47
2023-03-20T01:44:22.413Z,91.79
2023-03-20T01:46:56.449Z,92.95
2023-03-20T01:49:56.294Z,92.72
2023-03-20T01:52:26.197Z,94.80
2023-03-20T01:54:56.202Z,95.64
2023-03-20T01:57:28.964Z,96.03
2023-03-20T02:00:05.655Z,96.47
2023-03-20T02:02:47.221Z,97.25
2023-03-20T02:05:31.487Z,96.97
2023-03-20T02:08:11.268Z,96.85
2023-03-20T02:10:41.567Z,96.73
2023-03-20T02:13:24.496Z,96.37
2023-03-20T02:16:08.546Z,94.87
2023-03-20T02:18:59.141Z,95.57
2023-03-20T02:22:05.192Z,94.14
2023-03-20T02:25:15.749Z,94.08
2023-03-20T02:28:02.004Z,94.07
2023-03-20T02:30:49.385Z,94.55
2023-03-20T02:33:51.256Z,94.38
2023-03-20T02:36:48.550Z,95.05
2023-03-20T02:39:36.669Z,95.04
2023-03-20T02:42:14.521Z,95.44
2023-03-20T02:44:49.103Z,95.40
2023-03-20T02:47:26.819Z,96.47
2023-03-20T02:50:05.345Z,97.45
2023-03-20T02:52:43.600Z,97.25
2023-03-20T02:55:21.453Z,97.55
2023-03-20T02:58:01.078Z,97.25
2023-03-20T03:00:36.649Z,97.64
2023-03-20T03:03:11.601Z,97.01
2023-03-20T03:05:47.873Z,97.41
2023-03-20T03:08:23.139Z,97.05
2023-03-20T03:10:58.268Z,98.18
2023-03-20T03:13:32.556Z,97.84
2023-03-20T03:16:09.835Z,98.43
2023-03-20T03:18:41.604Z,98.47
2023-03-20T03:21:15.796Z,98.62
2023-03-20T03:23:48.477Z,99.18
2023-03-20T03:26:25.389Z,99.27
2023-03-20T03:29:01.633Z,99.41
2023-03-20T03:31:32.797Z,99.16
2023-03-20T03:34:04.128Z,99.90
2023-03-20T03:36:43.119Z,99.97
2023-03-20T03:39:21.479Z,100.00
2023-03-20T03:41:56.640Z,100.00
2023-03-20T03:44:32.408Z,100.00
2023-03-20T03:47:07.805Z,100.00
2023-03-20T03:49:40.543Z,100.00
2023-03-20T03:52:14.709Z,100.00
2023-03-20T03:54:48.537Z,100.00
2023-03-20T03:57:40.981Z,100.00
2023-03-20T04:00:19.435Z,100.00
2023-03-20T04:02:52.784Z,100.00
2023-03-20T04:05:23.458Z,100.00
2023-03-20T04:07:57.682Z,100.00
2023-03-20T04:10:27.375Z,100.00
2023-03-20T04:12:59.621Z,100.00
2023-03-20T04:15:29.715Z,100.00
2023-03-20T04:18:00.200Z,100.00
2023-03-20T04:20:30.230Z,100.00
2023-03-20T04:23:01.634Z,100.00
2023-03-20T04:25:31.513Z,100.00
2023-03-20T04:28:03.745Z,100.00
2023-03-20T04:30:48.377Z,100.00
2023-03-20T04:33:18.045Z,100.00
2023-03-20T04:36:08.393Z,100.00
2023-03-20T04:38:38.111Z,100.00
2023-03-20T04:41:08.857Z,100.00
2023-03-20T04:43:41.422Z,100.00
2023-03-20T04:46:11.673Z,100.00
2023-03-20T04:48:41.344Z,100.00
2023-03-20T04:51:11.729Z,100.00
2023-03-20T04:53:47.971Z,100.00
2023-03-20T04:56:17.872Z,100.00
2023-03-20T04:58:51.269Z,100.00
2023-03-20T05:01:23.654Z,100.00
2023-03-20T05:03:57.926Z,100.00
2023-03-20T05:06:28.221Z,100.00
2023-03-20T05:08:59.170Z,100.00
2023-03-20T05:11:29.005Z,100.00
2023-03-20T05:14:16.862Z,100.00
2023-03-20T05:16:54.940Z,100.00
2023-03-20T05:19:43.478Z,100.00
2023-03-20T05:22:16.618Z,100.00
2023-03-20T05:24:51.989Z,100.00
2023-03-20T05:27:49.713Z,100.00
2023-03-20T05:30:39.866Z,100.00
2023-03-20T05:33:47.683Z,100.00
2023-03-20T05:36:24.869Z,100.00
2023-03-20T05:38:58.765Z,100.00
2023-03-20T05:41:48.799Z,100.00
2023-03-20T05:44:38.026Z,100.00
2023-03-20T05:47:28.673Z,100.00
2023-03-20T05:50:05.760Z,100.00
2023-03-20T05:52:50.113Z,100.00
2023-03-20T05:55:31.422Z,100.00
2023-03-20T05:58:13.975Z,100.00
2023-03-20T06:01:00.594Z,100.00
2023-03-20T06:03:51.542Z,100.00
2023-03-20T06:06:38.308Z,100.00
2023-03-20T06:09:08.416Z,100.00
2023-03-20T06:11:38.329Z,100.00
2023-03-20T06:14:10.004Z,100.00
2023-03-20T06:16:42.784Z,100.00
2023-03-20T06:19:16.072Z,100.00
2023-03-20T06:21:45.860Z,100.00
2023-03-20T06:24:18.936Z,100.00
2023-03-20T06:26:49.040Z,100.00
2023-03-20T06:29:18.668Z,100.00
2023-03-20T06:31:48.994Z,99.95
2023-03-20T06:34:30.300Z,99.43
2023-03-20T06:36:59.931Z,99.91
2023-03-20T06:39:29.629Z,99.80
2023-03-20T06:41:59.593Z,100.00
2023-03-20T06:44:29.667Z,100.00
2023-03-20T06:47:15.753Z,100.00
2023-03-20T06:49:48.128Z,100.00
2023-03-20T06:52:19.895Z,100.00
2023-03-20T06:54:59.026Z,99.23
2023-03-20T06:57:28.650Z,99.18
2023-03-20T06:59:58.422Z,98.49
2023-03-20T07:02:28.860Z,98.26
2023-03-20T07:05:01.226Z,97.62
2023-03-20T07:07:31.611Z,98.20
2023-03-20T07:10:01.616Z,98.61
2023-03-20T07:12:32.448Z,97.94
2023-03-20T07:15:03.509Z,97.89
2023-03-20T07:17:33.543Z,97.29
2023-03-20T07:20:05.902Z,96.27
2023-03-20T07:22:35.741Z,96.42
2023-03-20T07:25:41.734Z,95.51
2023-03-20T07:28:13.961Z,94.81
2023-03-20T07:30:46.824Z,95.45
2023-03-20T07:33:19.605Z,94.69
2023-03-20T07:35:55.301Z,94.34
2023-03-20T07:38:26.219Z,94.31
2023-03-20T07:41:07.912Z,92.87
2023-03-20T07:43:42.534Z,93.75
2023-03-20T07:46:37.155Z,94.32
2023-03-20T07:49:06.813Z,93.02
2023-03-20T07:51:39.184Z,92.93
2023-03-20T07:54:08.946Z,91.96
2023-03-20T07:56:40.291Z,89.95
2023-03-20T07:59:11.729Z,89.46
2023-03-20T08:01:41.434Z,88.63
2023-03-20T08:04:11.556Z,88.32
2023-03-20T08:06:43.868Z,88.93
2023-03-20T08:09:13.725Z,90.10
2023-03-20T08:11:43.601Z,88.92
2023-03-20T08:14:13.425Z,89.75
2023-03-20T08:16:43.150Z,88.90
2023-03-20T08:19:12.784Z,89.53
2023-03-20T08:21:45.083Z,88.71
2023-03-20T08:24:14.697Z,88.35
2023-03-20T08:26:44.400Z,86.91
2023-03-20T08:29:17.353Z,87.05
2023-03-20T08:31:46.970Z,87.41
2023-03-20T08:34:16.631Z,87.78
2023-03-20T08:36:49.056Z,88.03
2023-03-20T08:39:18.812Z,88.25
2023-03-20T08:41:48.535Z,86.88
2023-03-20T08:44:18.202Z,87.68
2023-03-20T08:46:47.828Z,88.60
2023-03-20T08:49:17.468Z,87.55
2023-03-20T08:51:49.685Z,88.18
2023-03-20T08:54:19.785Z,87.65
2023-03-20T08:56:49.483Z,86.06
2023-03-20T08:59:19.461Z,85.77
2023-03-20T09:01:50.528Z,86.37
2023-03-20T09:04:21.245Z,84.89
2023-03-20T09:06:53.684Z,83.43
2023-03-20T09:09:29.445Z,83.21
2023-03-20T09:11:59.619Z,83.10
2023-03-20T09:14:30.604Z,82.25
2023-03-20T09:17:00.312Z,81.53
2023-03-20T09:19:31.676Z,80.49
2023-03-20T09:22:04.075Z,80.61
2023-03-20T09:24:34.193Z,79.46
2023-03-20T09:27:03.905Z,78.85
2023-03-20T09:29:33.613Z,79.48
2023-03-20T09:32:03.283Z,77.98
2023-03-20T09:34:32.965Z,77.68
2023-03-20T09:37:05.459Z,75.91
2023-03-20T09:39:35.314Z,75.31
2023-03-20T09:42:14.351Z,75.39
2023-03-20T09:44:57.162Z,73.64
2023-03-20T09:47:37.606Z,73.83
2023-03-20T09:50:23.879Z,73.98
2023-03-20T09:53:03.519Z,75.55
2023-03-20T09:55:37.655Z,72.83
2023-03-20T09:58:15.559Z,73.57
2023-03-20T10:00:48.614Z,73.30
2023-03-20T10:03:22.442Z,73.15
2023-03-20T10:05:57.404Z,70.56
2023-03-20T10:08:32.781Z,72.98
2023-03-20T10:11:15.926Z,74.13
2023-03-20T10:14:03.001Z,72.97
2023-03-20T10:16:44.763Z,71.45
2023-03-20T10:19:24.012Z,71.90
2023-03-20T10:22:00.722Z,70.15
2023-03-20T10:24:38.833Z,70.43
2023-03-20T10:27:20.898Z,71.34
2023-03-20T10:29:58.937Z,70.22
2023-03-20T10:32:36.618Z,69.59
2023-03-20T10:35:19.044Z,70.10
2023-03-20T10:38:02.809Z,70.99
2023-03-20T10:40:37.540Z,70.53
2023-03-20T10:43:17.412Z,70.98
2023-03-20T10:45:51.054Z,68.91
2023-03-20T10:48:27.500Z,69.40
2023-03-20T10:50:59.929Z,68.36
2023-03-20T10:53:35.004Z,69.14
2023-03-20T10:56:11.653Z,70.07
2023-03-20T10:58:44.282Z,69.60
2023-03-20T11:01:14.259Z,66.85
2023-03-20T11:03:44.254Z,68.50
2023-03-20T11:06:21.897Z,69.27
2023-03-20T11:08:54.971Z,66.94
2023-03-20T11:11:29.317Z,66.53
2023-03-20T11:13:59.064Z,67.18
2023-03-20T11:16:33.890Z,67.28
2023-03-20T11:19:09.682Z,66.63
2023-03-20T11:21:49.054Z,65.53
2023-03-20T11:24:28.685Z,66.28
2023-03-20T11:27:08.808Z,67.11
2023-03-20T11:29:39.021Z,66.58
2023-03-20T11:32:23.384Z,64.61
2023-03-20T11:34:57.422Z,64.13
2023-03-20T11:37:29.549Z,63.87
2023-03-20T11:40:03.614Z,65.45
2023-03-20T11:42:37.329Z,64.99
2023-03-20T11:45:09.649Z,63.84
2023-03-20T11:47:39.381Z,64.05
2023-03-20T11:50:26.846Z,64.22
2023-03-20T11:52:57.221Z,64.85
2023-03-20T11:55:29.948Z,64.85
2023-03-20T11:58:04.167Z,64.67
2023-03-20T12:00:41.444Z,62.93
2023-03-20T12:03:55.490Z,61.81
2023-03-20T12:06:28.512Z,61.82
2023-03-20T12:09:03.519Z,61.14
2023-03-20T12:11:48.346Z,60.85
2023-03-20T12:14:31.132Z,61.99
2023-03-20T12:17:18.126Z,61.21
2023-03-20T12:19:50.868Z,61.09
2023-03-20T12:22:27.293Z,61.54
2023-03-20T12:25:04.062Z,62.66
2023-03-20T12:27:38.085Z,60.93
2023-03-20T12:30:17.029Z,60.85
2023-03-20T12:32:55.784Z,60.22
2023-03-20T12:35:29.581Z,60.03
2023-03-20T12:38:00.125Z,59.49
2023-03-20T12:40:42.504Z,60.97
2023-03-20T12:43:18.590Z,61.47
2023-03-20T12:45:56.010Z,60.93
2023-03-20T12:48:47.153Z,60.61
2023-03-20T12:51:26.075Z,60.76
2023-03-20T12:54:06.432Z,61.11
2023-03-20T12:56:53.742Z,60.04
2023-03-20T12:59:32.708Z,60.93
2023-03-20T13:02:17.751Z,60.66
2023-03-20T13:05:00.244Z,61.15
2023-03-20T13:07:46.777Z,61.11
2023-03-20T13:10:22.473Z,61.24
2023-03-20T13:13:06.193Z,60.59
2023-03-20T13:15:51.788Z,60.51
2023-03-20T13:18:34.494Z,60.34
2023-03-20T13:21:11.640Z,60.25
2023-03-20T13:23:47.152Z,60.54
2023-03-20T13:26:28.354Z,60.96
2023-03-20T13:29:06.096Z,60.13
2023-03-20T13:31:46.735Z,59.60
2023-03-20T13:34:31.879Z,61.17
2023-03-20T13:37:24.263Z,60.73
2023-03-20T13:40:03.574Z,60.76
2023-03-20T13:42:38.265Z,60.97
2023-03-20T13:45:20.089Z,59.06
2023-03-20T13:47:50.851Z,59.56
2023-03-20T13:50:51.156Z,60.38
2023-03-20T13:53:32.782Z,61.08
2023-03-20T13:56:10.737Z,61.23
2023-03-20T13:58:56.395Z,60.48
2023-03-20T14:01:32.472Z,61.38
2023-03-20T14:04:05.427Z,62.02
2023-03-20T14:06:55.466Z,63.18
2023-03-20T14:09:37.128Z,63.08
2023-03-20T14:12:10.106Z,62.92
2023-03-20T14:14:46.330Z,61.81
2023-03-20T14:17:20.866Z,62.39
2023-03-20T14:19:51.809Z,63.29
2023-03-20T14:22:27.800Z,63.62
2023-03-20T14:25:02.539Z,63.83
2023-03-20T14:27:44.785Z,63.45
2023-03-20T14:30:44.021Z,63.34
2023-03-20T14:33:33.563Z,63.14
2023-03-20T14:36:31.621Z,63.65
2023-03-20T14:39:13.768Z,63.99
2023-03-20T14:41:59.305Z,63.08
2023-03-20T14:44:43.629Z,62.36
2023-03-20T14:47:23.803Z,62.34
2023-03-20T14:49:59.979Z,61.50
2023-03-20T14:52:43.637Z,62.28
2023-03-20T14:55:37.675Z,61.58
2023-03-20T14:58:28.391Z,61.62
2023-03-20T15:00:58.072Z,61.51
2023-03-20T15:03:28.060Z,61.56
2023-03-20T15:06:01.300Z,62.77
2023-03-20T15:08:34.766Z,63.16
2023-03-20T15:11:10.837Z,63.00
2023-03-20T15:13:40.949Z,62.29
2023-03-20T15:16:13.042Z,60.83
2023-03-20T15:18:45.591Z,61.33
2023-03-20T15:21:17.898Z,61.71
2023-03-20T15:23:48.588Z,62.46
2023-03-20T15:26:22.647Z,62.47
2023-03-20T15:28:52.414Z,62.79
2023-03-20T15:31:26.422Z,63.13
2023-03-20T15:33:57.566Z,63.37
2023-03-20T15:36:31.021Z,63.66
2023-03-20T15:39:08.718Z,62.61
2023-03-20T15:41:41.293Z,63.11
2023-03-20T15:44:21.138Z,64.36
2023-03-20T15:46:56.758Z,64.85
2023-03-20T15:49:27.132Z,64.59
2023-03-20T15:52:00.085Z,65.24
2023-03-20T15:54:30.093Z,65.52
2023-03-20T15:57:03.388Z,65.63
2023-03-20T15:59:36.557Z,65.84
2023-03-20T16:02:07.039Z,65.65
2023-03-20T16:04:37.198Z,66.49
2023-03-20T16:07:07.039Z,66.68
2023-03-20T16:09:46.003Z,66.06
2023-03-20T16:12:20.578Z,66.59
2023-03-20T16:14:51.405Z,66.16
2023-03-20T16:17:23.028Z,67.24
2023-03-20T16:19:52.718Z,67.04
2023-03-20T16:22:27.397Z,67.45
2023-03-20T16:24:58.808Z,68.62
2023-03-20T16:27:35.522Z,69.18
2023-03-20T16:30:08.652Z,70.08
2023-03-20T16:32:41.724Z,70.16
2023-03-20T16:35:19.508Z,70.50
2023-03-20T16:37:51.976Z,70.38
2023-03-20T16:40:32.411Z,70.44
2023-03-20T16:43:14.778Z,69.62
2023-03-20T16:45:46.547Z,69.82
2023-03-20T16:48:34.298Z,69.43
2023-03-20T16:51:13.420Z,70.25
2023-03-20T16:53:47.357Z,69.95
2023-03-20T16:56:20.050Z,68.94
2023-03-20T16:58:54.009Z,69.01
2023-03-20T17:01:27.577Z,69.74
2023-03-20T17:03:59.707Z,70.64
2023-03-20T17:06:38.502Z,71.29
2023-03-20T17:09:24.116Z,71.07
2023-03-20T17:12:00.691Z,71.81
2023-03-20T17:14:33.251Z,72.21
2023-03-20T17:17:02.880Z,72.79
2023-03-20T17:19:35.625Z,71.42
2023-03-20T17:22:13.069Z,71.68
2023-03-20T17:24:42.677Z,72.08
2023-03-20T17:27:15.102Z,71.59
2023-03-20T17:29:49.381Z,71.71
2023-03-20T17:32:23.916Z,69.43
2023-03-20T17:34:54.268Z,70.92
2023-03-20T17:37:29.659Z,71.44
2023-03-20T17:40:00.917Z,71.54
2023-03-20T17:42:33.439Z,71.45
2023-03-20T17:45:06.678Z,71.73
2023-03-20T17:47:36.865Z,72.08
2023-03-20T17:50:07.421Z,72.08
2023-03-20T17:52:37.355Z,72.44
2023-03-20T17:55:07.781Z,72.73
2023-03-20T17:57:38.929Z,72.13
2023-03-20T18:00:17.758Z,72.25
2023-03-20T18:02:47.538Z,72.43
2023-03-20T18:05:17.991Z,72.64
2023-03-20T18:07:47.679Z,73.76
2023-03-20T18:10:23.649Z,74.50
2023-03-20T18:12:53.724Z,74.74
2023-03-20T18:15:26.416Z,74.87
2023-03-20T18:17:56.291Z,74.71
2023-03-20T18:20:29.568Z,74.20
2023-03-20T18:22:59.716Z,74.04
2023-03-20T18:25:30.221Z,74.79
2023-03-20T18:28:01.508Z,74.68
2023-03-20T18:30:38.356Z,75.28
2023-03-20T18:33:08.689Z,75.68
2023-03-20T18:35:38.968Z,76.37
2023-03-20T18:38:09.052Z,76.23
2023-03-20T18:40:40.147Z,76.94
2023-03-20T18:43:09.965Z,77.07
2023-03-20T18:45:42.423Z,77.81
2023-03-20T18:48:14.780Z,79.00
2023-03-20T18:50:44.887Z,79.22
2023-03-20T18:53:14.829Z,79.45
2023-03-20T18:55:45.005Z,80.17
2023-03-20T18:58:22.930Z,79.95
2023-03-20T19:00:56.676Z,80.66
2023-03-20T19:03:28.704Z,80.54
2023-03-20T19:06:00.935Z,80.44
2023-03-20T19:08:34.109Z,81.85
2023-03-20T19:11:04.402Z,81.77
2023-03-20T19:13:34.349Z,81.64
2023-03-20T19:16:08.491Z,82.55
2023-03-20T19:18:40.010Z,83.30
2023-03-20T19:21:09.894Z,83.60
2023-03-20T19:23:40.176Z,84.92
2023-03-20T19:26:17.799Z,87.39
2023-03-20T19:28:48.947Z,88.35
2023-03-20T19:31:21.465Z,87.67
2023-03-20T19:33:51.440Z,88.26
2023-03-20T19:36:26.780Z,88.16
2023-03-20T19:38:59.857Z,88.61
2023-03-20T19:41:32.276Z,88.34
2023-03-20T19:44:02.682Z,89.01
2023-03-20T19:46:42.736Z,90.42
2023-03-20T19:49:19.969Z,90.90
2023-03-20T19:51:50.676Z,92.64
2023-03-20T19:54:20.331Z,93.46
2023-03-20T19:56:53.009Z,93.72
2023-03-20T19:59:23.286Z,93.66
2023-03-20T20:01:55.856Z,93.32
2023-03-20T20:04:25.854Z,93.33
2023-03-20T20:07:07.275Z,92.72
2023-03-20T20:09:45.697Z,93.67
2023-03-20T20:12:15.330Z,93.85
2023-03-20T20:14:44.939Z,94.34
2023-03-20T20:17:17.300Z,95.31
2023-03-20T20:19:46.969Z,95.78
2023-03-20T20:22:25.180Z,96.44
2023-03-20T20:24:55.745Z,95.12
2023-03-20T20:27:29.278Z,93.34
2023-03-20T20:29:59.969Z,94.25
2023-03-20T20:32:33.132Z,94.89
2023-03-20T20:35:39.915Z,94.26
2023-03-20T20:40:46.524Z,94.77
2023-03-20T20:43:39.010Z,89.65
2023-03-20T20:46:06.098Z,92.75
2023-03-20T20:48:40.206Z,93.45
2023-03-20T20:51:10.003Z,94.26
2023-03-20T20:53:39.625Z,94.33
2023-03-20T20:56:10.606Z,94.64
2023-03-20T20:58:40.804Z,95.96
2023-03-20T21:01:10.810Z,96.76
2023-03-20T21:03:43.119Z,95.69
2023-03-20T21:06:13.254Z,96.32
2023-03-20T21:08:42.943Z,98.61
2023-03-20T21:11:15.210Z,98.51
2023-03-20T21:13:45.173Z,98.47
2023-03-20T21:16:17.853Z,98.68
2023-03-20T21:18:50.629Z,97.98
2023-03-20T21:21:20.610Z,98.98
2023-03-20T21:23:51.262Z,99.07
2023-03-20T21:26:21.281Z,99.77
2023-03-20T21:28:50.953Z,98.44
2023-03-20T21:31:31.012Z,98.28
2023-03-20T21:34:05.198Z,99.07
2023-03-20T21:36:35.347Z,99.12
2023-03-20T21:39:08.770Z,98.55
2023-03-20T21:41:40.511Z,98.39
2023-03-20T21:44:17.132Z,97.59
2023-03-20T21:50:31.161Z,96.60
2023-03-20T21:53:12.013Z,97.21
2023-03-20T21:56:23.734Z,98.06
2023-03-20T21:58:53.583Z,97.54
2023-03-20T22:01:45.095Z,96.95
2023-03-20T22:04:45.184Z,97.20
2023-03-20T22:15:54.275Z,98.61
2023-03-20T22:18:50.625Z,98.42
2023-03-20T22:33:16.835Z,100.00
2023-03-20T22:38:49.555Z,100.00
2023-03-20T22:41:59.264Z,100.00
2023-03-20T22:46:49.453Z,100.00
2023-03-20T22:49:19.140Z,100.00
2023-03-20T22:52:07.687Z,100.00
2023-03-20T22:54:38.826Z,100.00
2023-03-20T22:57:11.560Z,100.00
2023-03-20T22:59:41.515Z,100.00
2023-03-20T23:02:11.602Z,100.00
2023-03-20T23:04:59.930Z,100.00
2023-03-20T23:07:48.498Z,100.00
2023-03-20T23:10:18.250Z,100.00
2023-03-20T23:12:50.508Z,100.00
2023-03-20T23:15:20.334Z,100.00
2023-03-20T23:17:49.989Z,100.00
2023-03-20T23:20:21.744Z,100.00
2023-03-20T23:22:52.255Z,100.00
2023-03-20T23:25:36.303Z,100.00
2023-03-20T23:28:12.302Z,100.00
2023-03-20T23:30:51.879Z,100.00
2023-03-20T23:33:29.363Z,100.00
2023-03-20T23:36:12.523Z,100.00
2023-03-20T23:38:46.091Z,100.00
2023-03-20T23:41:16.411Z,100.00
2023-03-20T23:43:48.626Z,100.00
2023-03-20T23:46:18.321Z,100.00
2023-03-20T23:48:48.006Z,100.00
2023-03-20T23:51:17.636Z,100.00
2023-03-20T23:53:47.278Z,100.00
2023-03-20T23:56:16.937Z,100.00
2023-03-20T23:58:59.451Z,100.00
